Time;durP1;ratioP1;P1;durP2;ratioP2;P2;SDS_P1;SDS_P2;PMS_P1;PMS_P2;Temp;Humidity;BMP_temperature;BMP_pressure;BME280_temperature;BME280_humidity;BME280_pressure;Samples;Min_cycle;Max_cycle;Signal;HPM_P1;HPM_P2
2022/03/30 00:01:30;;;;;;;30.63;18.37;;;11.10;99.90;;;;;;5082835;28;20553;-82
2022/03/30 00:03:59;;;;;;;31.33;17.87;;;11.00;99.90;;;;;;5091740;28;20235;-81
2022/03/30 00:06:26;;;;;;;31.30;18.70;;;11.00;99.90;;;;;;5088988;28;20634;-81
2022/03/30 00:08:53;;;;;;;29.63;17.83;;;11.00;99.90;;;;;;5110671;28;20269;-82
2022/03/30 00:11:20;;;;;;;33.20;19.07;;;11.00;99.90;;;;;;5109991;28;20219;-82
2022/03/30 00:13:47;;;;;;;30.93;18.13;;;11.00;99.90;;;;;;5112823;28;20273;-82
2022/03/30 00:16:14;;;;;;;28.33;17.67;;;11.00;99.90;;;;;;5108419;28;20346;-81
2022/03/30 00:18:41;;;;;;;27.83;17.43;;;11.00;99.90;;;;;;5092087;28;20529;-81
2022/03/30 00:21:09;;;;;;;29.43;17.90;;;11.00;99.90;;;;;;5103127;28;20242;-82
2022/03/30 00:23:36;;;;;;;30.40;17.67;;;11.00;99.90;;;;;;5102114;28;20291;-81
2022/03/30 00:26:03;;;;;;;31.70;17.97;;;11.10;99.90;;;;;;5110540;28;20365;-81
2022/03/30 00:28:30;;;;;;;30.33;18.73;;;11.10;99.90;;;;;;5103475;28;20280;-81
2022/03/30 00:30:58;;;;;;;31.83;18.30;;;11.00;99.90;;;;;;5091979;28;20231;-82
2022/03/30 00:33:25;;;;;;;31.70;18.33;;;11.10;99.90;;;;;;5101199;28;20196;-81
2022/03/30 00:35:52;;;;;;;30.23;17.80;;;11.10;99.90;;;;;;5103375;28;20235;-82
2022/03/30 00:38:21;;;;;;;27.97;17.97;;;11.10;99.90;;;;;;5112406;28;20285;-81
2022/03/30 00:40:48;;;;;;;28.40;17.93;;;11.00;99.90;;;;;;5111663;28;20614;-81
2022/03/30 00:43:16;;;;;;;29.33;17.73;;;11.00;99.90;;;;;;5107855;28;20676;-82
2022/03/30 00:45:43;;;;;;;29.70;17.30;;;11.00;99.90;;;;;;5112291;28;20198;-81
2022/03/30 00:48:09;;;;;;;32.17;17.53;;;11.10;99.90;;;;;;5110462;28;20236;-82
2022/03/30 00:50:37;;;;;;;32.47;18.33;;;11.00;99.90;;;;;;5106122;28;20224;-82
2022/03/30 00:53:03;;;;;;;32.20;17.97;;;11.00;99.90;;;;;;5091409;28;20277;-81
2022/03/30 00:55:32;;;;;;;27.67;17.77;;;11.00;99.90;;;;;;5102765;28;20230;-81
2022/03/30 00:58:00;;;;;;;28.57;18.17;;;11.00;99.90;;;;;;5111536;28;20236;-81
2022/03/30 01:00:27;;;;;;;29.23;17.90;;;11.00;99.90;;;;;;5094334;28;20190;-81
2022/03/30 01:02:55;;;;;;;28.57;18.07;;;10.90;99.90;;;;;;5110624;28;20191;-81
2022/03/30 01:05:22;;;;;;;28.13;17.47;;;11.00;99.90;;;;;;5110404;28;20213;-81
2022/03/30 01:07:49;;;;;;;28.67;18.00;;;10.90;99.90;;;;;;5098315;28;20362;-81
2022/03/30 01:10:18;;;;;;;29.93;17.97;;;10.90;99.90;;;;;;5111476;28;20639;-81
2022/03/30 01:12:52;;;;;;;28.93;17.90;;;10.90;99.90;;;;;;5086303;28;20255;-81
2022/03/30 01:15:19;;;;;;;27.70;18.03;;;10.90;99.90;;;;;;5101233;28;20251;-81
2022/03/30 01:17:46;;;;;;;31.10;17.87;;;10.90;99.90;;;;;;5100986;28;20282;-82
2022/03/30 01:20:16;;;;;;;30.37;18.70;;;10.90;99.90;;;;;;5105298;28;20238;-81
2022/03/30 01:22:45;;;;;;;28.43;18.17;;;10.90;99.90;;;;;;5111745;28;20199;-81
2022/03/30 01:25:12;;;;;;;30.23;18.13;;;10.90;99.90;;;;;;5111389;28;20283;-81
2022/03/30 01:27:39;;;;;;;30.47;18.10;;;10.90;99.90;;;;;;5111528;28;20291;-81
2022/03/30 01:32:59;;;;;;;29.53;17.90;;;10.90;99.90;;;;;;5103482;28;20334;-81
2022/03/30 01:35:26;;;;;;;31.07;18.03;;;10.90;99.90;;;;;;5111499;28;20281;-81
2022/03/30 01:37:55;;;;;;;29.20;18.07;;;10.90;99.90;;;;;;5111788;28;20222;-81
2022/03/30 01:40:22;;;;;;;27.97;18.77;;;10.80;99.90;;;;;;5112727;28;20231;-82
2022/03/30 01:42:50;;;;;;;26.53;17.90;;;10.90;99.90;;;;;;5107108;28;20669;-81
2022/03/30 01:45:17;;;;;;;27.73;18.10;;;10.80;99.90;;;;;;5107208;28;20836;-82
2022/03/30 01:47:49;;;;;;;31.70;19.23;;;10.80;99.90;;;;;;5094924;28;20200;-81
2022/03/30 01:50:17;;;;;;;26.13;17.27;;;10.70;99.90;;;;;;5077613;28;20233;-81
2022/03/30 01:52:45;;;;;;;30.37;18.57;;;10.70;99.90;;;;;;5111893;28;20213;-81
2022/03/30 01:55:14;;;;;;;32.27;18.73;;;10.70;99.90;;;;;;5115360;28;20243;-82
2022/03/30 01:57:41;;;;;;;28.17;18.03;;;10.80;99.90;;;;;;5114192;28;20206;-81
2022/03/30 02:00:10;;;;;;;32.50;18.67;;;10.70;99.90;;;;;;5109041;28;20462;-81
2022/03/30 02:02:38;;;;;;;30.80;19.20;;;10.70;99.90;;;;;;5109334;28;20198;-81
2022/03/30 02:05:06;;;;;;;29.70;17.87;;;10.70;99.90;;;;;;5114124;28;20228;-81
2022/03/30 02:07:34;;;;;;;36.43;19.23;;;10.70;99.90;;;;;;5098976;28;20311;-82
2022/03/30 02:10:01;;;;;;;32.73;19.77;;;10.70;99.90;;;;;;5098764;28;20202;-82
2022/03/30 02:12:29;;;;;;;28.47;18.90;;;10.60;99.90;;;;;;5114310;28;20219;-82
2022/03/30 02:14:57;;;;;;;31.90;19.23;;;10.60;99.90;;;;;;5114899;28;20296;-82
2022/03/30 02:17:26;;;;;;;31.20;18.50;;;10.60;99.90;;;;;;5114764;28;20198;-81
2022/03/30 02:19:53;;;;;;;32.10;19.60;;;10.60;99.90;;;;;;5114646;28;20296;-81
2022/03/30 02:22:22;;;;;;;31.93;19.83;;;10.60;99.90;;;;;;5114343;28;20282;-81
2022/03/30 02:24:48;;;;;;;31.07;20.20;;;10.50;99.90;;;;;;5114947;28;20293;-82
2022/03/30 02:27:16;;;;;;;35.80;20.27;;;10.50;99.90;;;;;;5096617;28;20285;-82
2022/03/30 02:29:44;;;;;;;33.00;20.43;;;10.50;99.90;;;;;;5097696;28;20229;-81
2022/03/30 02:32:11;;;;;;;32.43;20.70;;;10.50;99.90;;;;;;5094575;28;20297;-81
2022/03/30 02:34:37;;;;;;;36.17;20.73;;;10.50;99.90;;;;;;5113961;28;20284;-82
2022/03/30 02:37:05;;;;;;;35.63;22.00;;;10.40;99.90;;;;;;5114320;28;20285;-82
2022/03/30 02:39:32;;;;;;;40.73;23.10;;;10.40;99.90;;;;;;5103241;28;20223;-82
2022/03/30 02:41:59;;;;;;;36.10;22.10;;;10.40;99.90;;;;;;5096413;28;20638;-82
2022/03/30 02:44:26;;;;;;;39.67;23.53;;;10.40;99.90;;;;;;5114080;28;20206;-82
2022/03/30 02:46:54;;;;;;;36.83;22.13;;;10.40;99.90;;;;;;5114562;28;20826;-81
2022/03/30 02:49:21;;;;;;;38.30;22.90;;;10.30;99.90;;;;;;5114272;28;20234;-82
2022/03/30 02:51:48;;;;;;;39.90;23.97;;;10.30;99.90;;;;;;5094583;28;20228;-82
2022/03/30 02:54:15;;;;;;;44.83;25.47;;;10.30;99.90;;;;;;5100732;28;20286;-81
2022/03/30 02:56:42;;;;;;;40.70;24.33;;;10.30;99.90;;;;;;5102362;28;20229;-82
2022/03/30 02:59:09;;;;;;;44.27;25.30;;;10.30;99.90;;;;;;5111803;28;20217;-82
2022/03/30 03:01:36;;;;;;;43.73;25.27;;;10.20;99.90;;;;;;5113796;28;20323;-82
2022/03/30 03:04:05;;;;;;;43.17;25.60;;;10.20;99.90;;;;;;5114153;28;20689;-82
2022/03/30 03:06:32;;;;;;;41.70;24.73;;;10.20;99.90;;;;;;5105737;28;20221;-81
2022/03/30 03:08:59;;;;;;;43.23;26.57;;;10.30;99.90;;;;;;5111230;28;20272;-81
2022/03/30 03:11:27;;;;;;;45.47;27.87;;;10.20;99.90;;;;;;5085611;28;20278;-81
2022/03/30 03:13:54;;;;;;;48.27;28.20;;;10.20;99.90;;;;;;5094688;28;20266;-81
2022/03/30 03:16:20;;;;;;;50.80;29.20;;;10.10;99.90;;;;;;5107110;28;20301;-82
2022/03/30 03:18:47;;;;;;;51.63;29.73;;;10.10;99.90;;;;;;5095599;28;20682;-81
2022/03/30 03:21:16;;;;;;;49.30;28.87;;;10.10;99.90;;;;;;5092618;28;20723;-81
2022/03/30 03:23:43;;;;;;;49.50;29.97;;;10.10;99.90;;;;;;5105991;28;20248;-82
2022/03/30 03:26:10;;;;;;;52.23;30.33;;;10.10;99.90;;;;;;5112993;28;20227;-81
2022/03/30 03:28:37;;;;;;;53.67;29.10;;;10.00;99.90;;;;;;5111716;28;20242;-82
2022/03/30 03:31:04;;;;;;;56.97;30.87;;;10.00;99.90;;;;;;5092576;28;20241;-82
2022/03/30 03:33:32;;;;;;;53.60;31.40;;;10.00;99.90;;;;;;5094297;28;20222;-81
2022/03/30 03:35:59;;;;;;;53.70;29.77;;;9.90;99.90;;;;;;5103206;28;20208;-81
2022/03/30 03:38:27;;;;;;;52.87;31.07;;;10.00;99.90;;;;;;5112418;28;20198;-81
2022/03/30 03:40:54;;;;;;;54.33;31.00;;;9.90;99.90;;;;;;5113063;28;20289;-81
2022/03/30 03:43:21;;;;;;;57.30;31.30;;;9.80;99.90;;;;;;5106502;28;20637;-81
2022/03/30 03:45:48;;;;;;;52.53;30.80;;;9.80;99.90;;;;;;5113350;28;20284;-81
2022/03/30 03:48:15;;;;;;;54.80;31.57;;;9.80;99.90;;;;;;5105041;28;20252;-81
2022/03/30 03:50:43;;;;;;;60.37;31.63;;;9.80;99.90;;;;;;5094011;28;20227;-81
2022/03/30 03:53:10;;;;;;;56.47;32.27;;;9.70;99.90;;;;;;5092512;28;20275;-82
2022/03/30 03:55:38;;;;;;;58.03;32.93;;;9.70;99.90;;;;;;5094440;28;20202;-81
2022/03/30 03:58:07;;;;;;;59.90;33.70;;;9.60;99.90;;;;;;5111953;28;20293;-81
2022/03/30 04:00:35;;;;;;;58.57;33.83;;;9.60;99.90;;;;;;5111116;28;20735;-82
2022/03/30 04:03:02;;;;;;;62.30;34.00;;;9.60;99.90;;;;;;5108431;28;20550;-82
2022/03/30 04:05:29;;;;;;;64.97;35.97;;;9.60;99.90;;;;;;5111760;28;20665;-81
2022/03/30 04:07:56;;;;;;;64.93;36.83;;;9.50;99.90;;;;;;5109531;28;20261;-81
2022/03/30 04:10:23;;;;;;;69.57;37.97;;;9.50;99.90;;;;;;5092405;28;20231;-81
2022/03/30 04:12:51;;;;;;;67.80;36.60;;;9.40;99.90;;;;;;5092516;28;20246;-81
2022/03/30 04:15:18;;;;;;;69.00;36.87;;;9.50;99.90;;;;;;5091793;28;20255;-81
2022/03/30 04:17:46;;;;;;;64.03;36.73;;;9.40;99.90;;;;;;5106350;28;20286;-81
2022/03/30 04:20:14;;;;;;;67.13;37.40;;;9.40;99.90;;;;;;5102735;28;20222;-81
2022/03/30 04:22:41;;;;;;;71.50;37.20;;;9.40;99.90;;;;;;5107208;28;20193;-82
2022/03/30 04:25:09;;;;;;;69.17;37.10;;;9.40;99.90;;;;;;5106632;28;20235;-81
2022/03/30 04:27:36;;;;;;;70.07;38.37;;;9.30;99.90;;;;;;5111195;28;20240;-82
2022/03/30 04:30:05;;;;;;;66.47;38.17;;;9.40;99.90;;;;;;5112441;28;20229;-81
2022/03/30 04:32:32;;;;;;;70.73;38.20;;;9.30;99.90;;;;;;5094313;28;20584;-81
2022/03/30 04:34:59;;;;;;;74.10;38.50;;;9.30;99.90;;;;;;5091932;28;20270;-81
2022/03/30 04:37:26;;;;;;;72.23;39.13;;;9.30;99.90;;;;;;5112045;28;20614;-81
2022/03/30 04:39:53;;;;;;;80.90;40.43;;;9.30;99.90;;;;;;5104066;28;20225;-81
2022/03/30 04:42:21;;;;;;;82.97;40.27;;;9.30;99.90;;;;;;5100481;28;20745;-82
2022/03/30 04:44:48;;;;;;;84.50;40.47;;;9.30;99.90;;;;;;5105415;28;20204;-81
2022/03/30 04:47:17;;;;;;;89.20;40.77;;;9.30;99.90;;;;;;5110810;28;20225;-82
2022/03/30 04:49:44;;;;;;;84.90;41.87;;;9.20;99.90;;;;;;5112214;28;20248;-81
2022/03/30 04:52:11;;;;;;;84.17;41.80;;;9.20;99.90;;;;;;5107067;28;20191;-81
2022/03/30 04:54:39;;;;;;;92.07;40.63;;;9.20;99.90;;;;;;5110027;28;20243;-82
2022/03/30 04:57:06;;;;;;;89.87;41.60;;;9.20;99.90;;;;;;5107960;28;20201;-82
2022/03/30 04:59:33;;;;;;;86.13;39.40;;;9.30;99.90;;;;;;5111139;28;20224;-82
2022/03/30 05:02:00;;;;;;;91.20;40.27;;;9.30;99.90;;;;;;5111874;28;20202;-82
2022/03/30 05:04:29;;;;;;;74.50;37.40;;;9.30;99.90;;;;;;5112135;28;20244;-83
2022/03/30 05:06:56;;;;;;;77.20;36.90;;;9.30;99.90;;;;;;5111546;28;20736;-82
2022/03/30 05:09:24;;;;;;;81.33;37.83;;;9.30;99.90;;;;;;5111507;28;20692;-83
2022/03/30 05:11:51;;;;;;;71.87;35.73;;;9.40;99.90;;;;;;5111139;28;20201;-83
2022/03/30 05:14:18;;;;;;;76.47;37.47;;;9.40;99.90;;;;;;5111487;28;20218;-82
2022/03/30 05:16:45;;;;;;;83.70;38.00;;;9.30;99.90;;;;;;5114653;28;20669;-83
2022/03/30 05:19:12;;;;;;;79.23;37.37;;;9.40;99.90;;;;;;5114372;28;20241;-84
2022/03/30 05:21:41;;;;;;;83.50;38.83;;;9.40;99.90;;;;;;5101713;28;20213;-84
2022/03/30 05:24:08;;;;;;;82.60;37.80;;;9.40;99.90;;;;;;5112218;28;20261;-83
2022/03/30 05:26:35;;;;;;;86.80;37.87;;;9.40;99.90;;;;;;5100674;28;20225;-84
2022/03/30 05:29:03;;;;;;;93.70;39.17;;;9.40;99.90;;;;;;5106492;28;20678;-82
2022/03/30 05:31:30;;;;;;;97.17;40.93;;;9.40;99.90;;;;;;5097247;28;20568;-81
2022/03/30 05:33:57;;;;;;;91.43;40.60;;;9.30;99.90;;;;;;5107295;28;20915;-88
2022/03/30 05:36:24;;;;;;;103.73;42.00;;;9.30;99.90;;;;;;5104428;28;20214;-83
2022/03/30 05:38:52;;;;;;;98.87;42.77;;;9.30;99.90;;;;;;5100524;28;20762;-85
2022/03/30 05:41:19;;;;;;;99.70;41.00;;;9.30;99.90;;;;;;5102188;28;20738;-85
2022/03/30 05:43:46;;;;;;;102.03;43.03;;;9.30;99.90;;;;;;5108321;28;20279;-84
2022/03/30 05:46:13;;;;;;;105.73;43.77;;;9.30;99.90;;;;;;5104286;28;20221;-84
2022/03/30 05:48:40;;;;;;;113.93;44.37;;;9.30;99.90;;;;;;5104158;28;21761;-85
2022/03/30 05:51:08;;;;;;;115.07;44.70;;;9.30;99.90;;;;;;5094601;28;20319;-83
2022/03/30 05:53:35;;;;;;;110.40;44.43;;;9.30;99.90;;;;;;5094332;28;20305;-83
2022/03/30 05:56:04;;;;;;;112.40;44.83;;;9.40;99.90;;;;;;5108646;28;20227;-82
2022/03/30 05:58:31;;;;;;;113.10;45.90;;;9.40;99.90;;;;;;5113367;28;20283;-84
2022/03/30 06:00:58;;;;;;;114.73;46.80;;;9.40;99.90;;;;;;5095940;28;21343;-84
2022/03/30 06:03:25;;;;;;;118.67;47.47;;;9.50;99.90;;;;;;5109429;28;20632;-84
2022/03/30 06:05:52;;;;;;;111.80;46.47;;;9.40;99.90;;;;;;5114478;28;20720;-84
2022/03/30 06:08:19;;;;;;;108.83;46.67;;;9.50;99.90;;;;;;5114282;28;20264;-83
2022/03/30 06:10:46;;;;;;;112.43;45.67;;;9.50;99.90;;;;;;5103380;28;20280;-83
2022/03/30 06:13:14;;;;;;;109.67;48.07;;;9.50;99.90;;;;;;5106865;28;20602;-83
2022/03/30 06:15:41;;;;;;;115.33;46.80;;;9.60;99.90;;;;;;5093943;28;20614;-84
2022/03/30 06:18:11;;;;;;;109.97;46.20;;;9.60;99.90;;;;;;5094395;28;20685;-83
2022/03/30 06:20:39;;;;;;;115.00;47.07;;;9.60;99.90;;;;;;5094644;28;20198;-82
2022/03/30 06:23:06;;;;;;;117.00;47.63;;;9.60;99.90;;;;;;5093983;28;20703;-82
2022/03/30 06:25:33;;;;;;;113.67;47.03;;;9.60;99.90;;;;;;5102572;28;20631;-83
2022/03/30 06:28:01;;;;;;;112.93;47.57;;;9.70;99.90;;;;;;5111721;28;20208;-83
2022/03/30 06:30:29;;;;;;;108.13;46.40;;;9.70;99.90;;;;;;5102787;28;20229;-82
2022/03/30 06:32:57;;;;;;;112.67;46.50;;;9.80;99.90;;;;;;5112044;28;20377;-82
2022/03/30 06:35:25;;;;;;;100.77;45.97;;;9.80;99.90;;;;;;5107610;27;20618;-83
2022/03/30 06:37:52;;;;;;;98.97;44.40;;;9.80;99.90;;;;;;5120233;27;20673;-83
2022/03/30 06:40:19;;;;;;;99.30;45.97;;;9.80;99.90;;;;;;5102431;28;20374;-83
2022/03/30 06:42:48;;;;;;;104.50;46.67;;;9.90;99.90;;;;;;5113358;27;20259;-83
2022/03/30 06:45:15;;;;;;;111.83;45.73;;;9.80;99.90;;;;;;5112822;28;20255;-83
2022/03/30 06:47:44;;;;;;;101.23;46.10;;;9.90;99.90;;;;;;5112530;28;20222;-83
2022/03/30 06:50:12;;;;;;;104.40;46.63;;;10.00;99.90;;;;;;5104401;28;20237;-84
2022/03/30 06:52:39;;;;;;;107.07;45.37;;;10.00;99.90;;;;;;5106810;28;20198;-83
2022/03/30 06:55:07;;;;;;;107.90;45.67;;;10.10;99.90;;;;;;5111877;28;20256;-83
2022/03/30 06:57:34;;;;;;;106.20;48.27;;;10.10;99.90;;;;;;5109339;28;20294;-83
2022/03/30 07:00:01;;;;;;;101.17;46.43;;;10.20;99.90;;;;;;5093790;28;20748;-83
2022/03/30 07:02:28;;;;;;;106.03;46.13;;;10.10;99.90;;;;;;5090794;28;20200;-83
2022/03/30 07:04:56;;;;;;;105.63;46.80;;;10.10;99.90;;;;;;5110432;28;20194;-82
2022/03/30 07:10:17;;;;;;;110.23;47.80;;;10.10;99.90;;;;;;5104597;28;20208;-83
2022/03/30 07:12:45;;;;;;;108.77;48.50;;;10.10;99.90;;;;;;5099834;28;20232;-83
2022/03/30 07:15:13;;;;;;;112.13;49.70;;;10.20;99.90;;;;;;5104868;28;20701;-83
2022/03/30 07:17:48;;;;;;;108.03;48.37;;;10.20;99.90;;;;;;5094874;28;20202;-83
2022/03/30 07:20:17;;;;;;;109.10;48.87;;;10.20;99.90;;;;;;5113496;28;20204;-83
2022/03/30 07:22:45;;;;;;;111.77;50.03;;;10.20;99.90;;;;;;5113353;28;20296;-83
2022/03/30 07:25:13;;;;;;;109.50;49.27;;;10.20;99.90;;;;;;5110977;28;20197;-82
2022/03/30 07:27:41;;;;;;;103.20;47.43;;;10.30;99.90;;;;;;5084266;28;20558;-82
2022/03/30 07:30:09;;;;;;;110.23;49.87;;;10.30;99.90;;;;;;5104455;28;20274;-82
2022/03/30 07:32:38;;;;;;;108.30;49.27;;;10.30;99.90;;;;;;5095604;28;20641;-82
2022/03/30 07:35:06;;;;;;;109.83;49.73;;;10.40;99.90;;;;;;5101313;28;20210;-83
2022/03/30 07:37:34;;;;;;;103.50;48.33;;;10.40;99.90;;;;;;5105275;28;20234;-82
2022/03/30 07:40:02;;;;;;;107.73;49.90;;;10.40;99.90;;;;;;5112559;28;20289;-82
2022/03/30 07:42:29;;;;;;;103.70;48.83;;;10.30;99.90;;;;;;5112112;28;20223;-82
2022/03/30 07:44:56;;;;;;;104.63;48.93;;;10.40;99.90;;;;;;5097105;28;20277;-81
2022/03/30 07:47:25;;;;;;;109.57;49.60;;;10.40;99.90;;;;;;5092811;28;20621;-80
2022/03/30 07:49:52;;;;;;;103.67;48.93;;;10.40;99.90;;;;;;5104505;28;20226;-81
2022/03/30 07:52:20;;;;;;;108.07;47.90;;;10.40;99.90;;;;;;5112508;28;20280;-81
2022/03/30 07:54:48;;;;;;;107.63;49.83;;;10.40;99.90;;;;;;5113053;28;20218;-80
2022/03/30 07:57:18;;;;;;;103.10;48.67;;;10.50;99.90;;;;;;5110091;28;20229;-81
2022/03/30 07:59:45;;;;;;;105.77;48.53;;;10.50;99.90;;;;;;5112957;28;20240;-81
2022/03/30 08:02:15;;;;;;;99.60;50.50;;;10.40;99.90;;;;;;5112133;28;20676;-81
2022/03/30 08:04:42;;;;;;;99.17;47.13;;;10.60;99.90;;;;;;5101156;28;20249;-81
2022/03/30 08:07:09;;;;;;;95.07;46.37;;;10.60;99.90;;;;;;5091840;28;20230;-81
2022/03/30 08:09:36;;;;;;;92.93;44.90;;;10.70;99.90;;;;;;5091755;28;20753;-81
2022/03/30 08:12:05;;;;;;;88.53;43.87;;;10.80;99.90;;;;;;5092165;28;20222;-81
2022/03/30 08:14:32;;;;;;;81.73;42.60;;;11.00;99.90;;;;;;5092035;28;20241;-81
2022/03/30 08:17:00;;;;;;;90.97;42.80;;;11.20;99.90;;;;;;5092457;28;20281;-81
2022/03/30 08:19:26;;;;;;;84.90;42.77;;;11.20;99.90;;;;;;5109835;28;20200;-81
2022/03/30 08:24:39;;;;;;;77.10;40.90;;;11.10;99.90;;;;;;5091552;28;20737;-81
2022/03/30 08:27:26;;;;;;;81.37;42.73;;;11.00;99.90;;;;;;5092051;28;20199;-81
2022/03/30 08:29:54;;;;;;;75.17;40.90;;;11.10;99.90;;;;;;5092195;28;20253;-81
2022/03/30 08:32:23;;;;;;;83.10;40.23;;;11.30;99.90;;;;;;5092059;28;20285;-81
2022/03/30 08:34:51;;;;;;;72.77;39.77;;;11.30;99.90;;;;;;5091574;28;20703;-80
2022/03/30 08:37:19;;;;;;;66.67;37.37;;;11.10;99.90;;;;;;5091665;28;20732;-81
2022/03/30 08:39:46;;;;;;;67.47;36.63;;;10.90;99.90;;;;;;5091421;28;20282;-81
2022/03/30 08:42:15;;;;;;;59.50;34.10;;;10.80;99.90;;;;;;5092054;28;20243;-81
2022/03/30 08:44:46;;;;;;;63.40;34.97;;;10.80;99.90;;;;;;5095158;28;20610;-81
2022/03/30 08:47:13;;;;;;;58.43;34.13;;;10.90;99.90;;;;;;5111706;28;20199;-80
2022/03/30 08:49:42;;;;;;;59.47;34.13;;;11.00;99.90;;;;;;5104076;28;20285;-81
2022/03/30 08:52:11;;;;;;;59.30;34.40;;;10.90;99.90;;;;;;5116214;28;20292;-81
2022/03/30 08:54:41;;;;;;;59.97;35.40;;;10.80;99.90;;;;;;5106877;28;20305;-81
2022/03/30 08:57:08;;;;;;;61.53;35.13;;;10.80;99.90;;;;;;5102565;28;20743;-80
2022/03/30 08:59:35;;;;;;;63.70;35.60;;;10.90;99.90;;;;;;5108824;28;20233;-81
2022/03/30 09:02:04;;;;;;;64.07;35.53;;;10.90;99.90;;;;;;5111569;28;20723;-81
2022/03/30 09:04:31;;;;;;;65.77;34.83;;;10.80;99.90;;;;;;5113921;28;20272;-81
2022/03/30 09:07:00;;;;;;;57.50;34.20;;;10.70;99.90;;;;;;5106681;28;20222;-81
2022/03/30 09:09:29;;;;;;;57.80;33.77;;;10.80;99.90;;;;;;5115473;28;20674;-81
2022/03/30 09:11:57;;;;;;;57.97;32.93;;;10.80;99.90;;;;;;5099073;28;20616;-81
2022/03/30 09:14:26;;;;;;;56.30;33.77;;;10.70;99.90;;;;;;5080624;28;20632;-81
2022/03/30 09:16:55;;;;;;;55.50;31.90;;;10.70;99.90;;;;;;5115028;28;20722;-81
2022/03/30 09:19:24;;;;;;;55.17;33.33;;;10.70;99.90;;;;;;5099328;28;20202;-81
2022/03/30 09:21:53;;;;;;;54.67;32.53;;;10.70;99.90;;;;;;5095784;28;20291;-81
2022/03/30 09:24:22;;;;;;;56.17;33.13;;;10.70;99.90;;;;;;5096750;28;20198;-81
2022/03/30 09:26:51;;;;;;;56.27;33.20;;;11.00;99.90;;;;;;5110842;28;20282;-81
2022/03/30 09:29:20;;;;;;;55.67;33.17;;;11.30;99.90;;;;;;5097880;28;20248;-81
2022/03/30 09:31:49;;;;;;;49.13;32.33;;;11.60;99.90;;;;;;5110056;28;20662;-81
2022/03/30 09:34:17;;;;;;;52.53;31.70;;;11.60;99.90;;;;;;5111387;28;20672;-80
2022/03/30 09:36:46;;;;;;;50.90;30.47;;;11.60;99.90;;;;;;5101107;28;20621;-81
2022/03/30 09:39:29;;;;;;;51.70;32.03;;;11.80;99.90;;;;;;5107890;28;20234;-81
2022/03/30 09:41:59;;;;;;;51.97;30.80;;;12.10;99.90;;;;;;5103160;28;20285;-81
2022/03/30 09:44:26;;;;;;;49.30;30.60;;;12.00;99.90;;;;;;5104052;28;20204;-81
2022/03/30 09:47:03;;;;;;;50.87;32.00;;;11.90;99.90;;;;;;5105840;28;20224;-81
2022/03/30 09:49:39;;;;;;;51.13;32.87;;;12.10;99.90;;;;;;5105294;28;20285;-81
2022/03/30 09:52:15;;;;;;;47.40;30.67;;;12.10;99.90;;;;;;5082557;28;20201;-81
2022/03/30 09:54:44;;;;;;;49.80;30.57;;;12.10;99.90;;;;;;5110491;28;20296;-80
2022/03/30 09:57:12;;;;;;;50.67;31.43;;;11.90;99.90;;;;;;5100427;28;20315;-80
2022/03/30 10:00:07;;;;;;;52.27;31.30;;;11.70;99.90;;;;;;5097664;28;20296;-82
2022/03/30 10:02:36;;;;;;;54.10;31.00;;;11.50;99.90;;;;;;5103032;28;20220;-82
2022/03/30 10:05:04;;;;;;;53.63;31.73;;;11.50;99.90;;;;;;5101739;28;20283;-81
2022/03/30 10:07:33;;;;;;;54.03;31.37;;;11.60;99.90;;;;;;5103459;28;20279;-81
2022/03/30 10:10:00;;;;;;;51.57;31.47;;;11.50;99.90;;;;;;5111940;28;20227;-81
2022/03/30 10:12:28;;;;;;;52.13;30.53;;;11.50;99.90;;;;;;5100452;28;20205;-81
2022/03/30 10:14:56;;;;;;;48.37;28.80;;;11.50;99.90;;;;;;5105252;28;20221;-81
2022/03/30 10:17:24;;;;;;;45.33;27.67;;;11.50;99.90;;;;;;5113286;28;20205;-81
2022/03/30 10:19:52;;;;;;;50.33;28.83;;;11.50;99.90;;;;;;5094519;28;20234;-81
2022/03/30 10:23:04;;;;;;;51.93;28.80;;;11.70;99.90;;;;;;5094510;28;20232;-81
2022/03/30 10:25:51;;;;;;;52.37;28.60;;;12.00;99.90;;;;;;5025951;28;20234;-81
2022/03/30 10:28:22;;;;;;;56.57;30.73;;;11.90;99.90;;;;;;5027131;28;20199;-82
2022/03/30 10:30:54;;;;;;;59.00;31.40;;;11.70;99.90;;;;;;5020158;28;20260;-81
2022/03/30 10:33:32;;;;;;;55.37;30.27;;;11.90;99.90;;;;;;5019091;28;20228;-81
2022/03/30 10:36:00;;;;;;;51.10;29.00;;;12.00;99.90;;;;;;5026669;28;20780;-83
2022/03/30 10:38:29;;;;;;;47.93;27.60;;;11.90;99.90;;;;;;5011527;28;20293;-81
2022/03/30 10:41:10;;;;;;;49.53;27.13;;;11.70;99.90;;;;;;5020564;28;20283;-81
2022/03/30 10:43:37;;;;;;;46.33;25.87;;;11.50;99.90;;;;;;5018623;28;20204;-81
2022/03/30 10:46:04;;;;;;;45.07;25.73;;;11.40;99.90;;;;;;5020421;28;20731;-82
2022/03/30 10:48:39;;;;;;;46.77;26.83;;;11.30;99.90;;;;;;5024595;28;20283;-82
2022/03/30 10:51:19;;;;;;;45.93;25.17;;;11.10;99.90;;;;;;5014585;28;20203;-82
2022/03/30 10:53:49;;;;;;;46.27;25.67;;;11.00;99.90;;;;;;5016270;28;20249;-81
2022/03/30 10:56:30;;;;;;;46.70;25.80;;;11.00;99.90;;;;;;5062736;28;20708;-81
2022/03/30 10:59:14;;;;;;;46.13;26.40;;;11.10;99.90;;;;;;5109591;28;20228;-83
2022/03/30 11:01:41;;;;;;;45.27;24.73;;;11.00;99.90;;;;;;5097621;28;20275;-81
2022/03/30 11:04:24;;;;;;;49.60;29.17;;;11.10;99.90;;;;;;5106288;28;20220;-81
2022/03/30 11:07:40;;;;;;;45.30;25.87;;;11.00;99.90;;;;;;5102330;28;20423;-84
2022/03/30 11:10:27;;;;;;;47.00;29.90;;;11.10;99.90;;;;;;5099383;28;20222;-82
2022/03/30 11:13:06;;;;;;;38.63;22.63;;;11.10;99.90;;;;;;5113394;28;20939;-83
2022/03/30 11:16:11;;;;;;;40.87;21.93;;;11.30;99.90;;;;;;5111911;28;20252;-84
2022/03/30 11:18:58;;;;;;;34.03;20.77;;;11.40;99.90;;;;;;5107275;28;20248;-83
2022/03/30 11:21:26;;;;;;;41.33;25.07;;;11.30;99.90;;;;;;5113355;28;20675;-82
2022/03/30 11:24:03;;;;;;;43.87;26.07;;;11.60;99.90;;;;;;5096520;28;20300;-82
2022/03/30 11:27:21;;;;;;;39.17;22.33;;;11.80;99.90;;;;;;5103131;28;20284;-82
2022/03/30 11:30:11;;;;;;;34.07;21.50;;;12.10;99.90;;;;;;5101193;28;20309;-82
2022/03/30 11:33:01;;;;;;;35.50;22.47;;;12.30;99.90;;;;;;5106485;28;20567;-82
2022/03/30 11:35:42;;;;;;;35.03;21.80;;;12.10;99.90;;;;;;5105151;28;20221;-83
2022/03/30 11:38:21;;;;;;;34.40;21.07;;;12.00;99.90;;;;;;5104113;28;20205;-83
2022/03/30 11:40:49;;;;;;;35.40;21.30;;;11.90;99.90;;;;;;5103742;28;20618;-82
2022/03/30 11:43:18;;;;;;;35.73;21.93;;;11.80;99.90;;;;;;5104895;28;20280;-82
2022/03/30 11:45:48;;;;;;;33.60;22.30;;;12.00;99.90;;;;;;5101240;28;20216;-82
2022/03/30 11:48:15;;;;;;;35.90;21.83;;;12.20;99.90;;;;;;5103347;28;20229;-83
2022/03/30 11:50:44;;;;;;;32.17;21.20;;;12.50;99.90;;;;;;5104098;28;20215;-83
2022/03/30 11:53:13;;;;;;;45.27;27.67;;;12.70;99.90;;;;;;5100454;28;20253;-82
2022/03/30 11:55:53;;;;;;;35.10;21.53;;;12.50;99.90;;;;;;5091749;28;20246;-82
2022/03/30 11:58:31;;;;;;;33.10;21.33;;;12.30;99.90;;;;;;5101201;28;20220;-82
2022/03/30 12:01:02;;;;;;;30.73;20.33;;;12.40;99.90;;;;;;5102170;28;20208;-82
2022/03/30 12:03:30;;;;;;;35.67;20.77;;;12.50;99.90;;;;;;5103587;28;20201;-82
2022/03/30 12:05:58;;;;;;;33.47;21.53;;;12.40;99.90;;;;;;5111730;28;20285;-82
2022/03/30 12:08:26;;;;;;;39.63;22.57;;;12.00;99.90;;;;;;5093890;28;20754;-82
2022/03/30 12:10:58;;;;;;;40.60;23.50;;;12.00;99.90;;;;;;5084716;28;20234;-82
2022/03/30 12:13:26;;;;;;;49.27;29.27;;;12.10;99.90;;;;;;5086181;28;20282;-82
2022/03/30 12:16:06;;;;;;;47.47;25.77;;;12.00;99.90;;;;;;5077437;28;20266;-83
2022/03/30 12:18:44;;;;;;;47.73;26.93;;;12.30;99.90;;;;;;5080870;28;20209;-79
2022/03/30 12:21:13;;;;;;;44.67;26.23;;;12.40;99.90;;;;;;5091754;28;20229;-78
2022/03/30 12:23:51;;;;;;;47.73;27.53;;;12.60;99.90;;;;;;5079623;28;20282;-79
2022/03/30 12:26:17;;;;;;;47.43;28.27;;;12.50;99.90;;;;;;5074388;28;20206;-79
2022/03/30 12:28:44;;;;;;;50.63;29.00;;;12.60;99.90;;;;;;5090846;28;20226;-78
2022/03/30 12:31:14;;;;;;;52.00;29.03;;;12.60;99.90;;;;;;5084414;28;20253;-79
2022/03/30 12:33:46;;;;;;;49.50;28.33;;;12.50;99.90;;;;;;5082929;28;20202;-78
2022/03/30 12:36:19;;;;;;;53.63;28.87;;;12.20;99.90;;;;;;5075707;28;20227;-79
2022/03/30 12:38:46;;;;;;;50.77;28.43;;;12.00;99.90;;;;;;5088416;28;20240;-79
2022/03/30 12:41:23;;;;;;;51.70;29.63;;;12.00;99.90;;;;;;5078401;28;20261;-79
2022/03/30 12:43:58;;;;;;;56.97;31.57;;;11.90;99.90;;;;;;5079271;28;20257;-78
2022/03/30 12:46:29;;;;;;;53.77;29.23;;;11.60;99.90;;;;;;5086361;28;20763;-79
2022/03/30 12:49:04;;;;;;;60.63;30.87;;;11.50;99.90;;;;;;5085607;28;20197;-78